Time;durP1;ratioP1;P1;durP2;ratioP2;P2;SDS_P1;SDS_P2;PMS_P1;PMS_P2;Temp;Humidity;BMP_temperature;BMP_pressure;BME280_temperature;BME280_humidity;BME280_pressure;Samples;Min_cycle;Max_cycle;Signal;HPM_P1;HPM_P2
2023/09/03 00:00:22;;;;;;;;;;;;;;;14.91;100.00;102502.63;5048079;28;1120;-83
2023/09/03 00:02:48;;;;;;;;;;;;;;;14.88;100.00;102501.91;5067892;28;1144;-83
2023/09/03 00:05:13;;;;;;;;;;;;;;;14.85;100.00;102504.75;5063997;28;1399;-84
2023/09/03 00:07:38;;;;;;;;;;;;;;;14.81;100.00;102505.91;5065332;28;1576;-83
2023/09/03 00:10:03;;;;;;;;;;;;;;;14.77;100.00;102498.41;5063837;28;1963;-82
2023/09/03 00:12:29;;;;;;;;;;;;;;;14.72;100.00;102506.56;5049540;28;1376;-82
2023/09/03 00:14:54;;;;;;;;;;;;;;;14.69;100.00;102512.03;5064839;28;1283;-82
2023/09/03 00:17:19;;;;;;;;;;;;;;;14.65;100.00;102505.34;5061402;28;1216;-82
2023/09/03 00:19:44;;;;;;;;;;;;;;;14.64;100.00;102508.09;5037414;28;1426;-83
2023/09/03 00:22:10;;;;;;;;;;;;;;;14.60;100.00;102502.25;5065333;28;1284;-83
2023/09/03 00:24:35;;;;;;;;;;;;;;;14.55;100.00;102499.13;5063218;28;1314;-81
2023/09/03 00:27:00;;;;;;;;;;;;;;;14.53;100.00;102506.25;5047427;28;1696;-83
2023/09/03 00:29:26;;;;;;;;;;;;;;;14.52;100.00;102504.56;5064124;28;1996;-82
2023/09/03 00:31:51;;;;;;;;;;;;;;;14.50;100.00;102501.22;5055247;28;1370;-83
2023/09/03 00:34:17;;;;;;;;;;;;;;;14.47;100.00;102512.72;5052204;28;1454;-83
2023/09/03 00:36:42;;;;;;;;;;;;;;;14.45;100.00;102508.50;5065541;28;1356;-84
2023/09/03 00:39:07;;;;;;;;;;;;;;;14.44;100.00;102522.50;5058322;28;1316;-81
2023/09/03 00:41:32;;;;;;;;;;;;;;;14.41;100.00;102520.13;5050372;28;1463;-80
2023/09/03 00:43:57;;;;;;;;;;;;;;;14.40;100.00;102521.09;5064547;28;1502;-83
2023/09/03 00:46:26;;;;;;;;;;;;;;;14.38;100.00;102522.94;5067930;28;1247;-81
2023/09/03 00:48:51;;;;;;;;;;;;;;;14.37;100.00;102532.56;5078625;28;1898;-83
2023/09/03 00:51:17;;;;;;;;;;;;;;;14.33;100.00;102528.50;5063197;28;1466;-84
2023/09/03 00:53:45;;;;;;;;;;;;;;;14.30;100.00;102536.56;5070833;28;1248;-83
2023/09/03 00:56:10;;;;;;;;;;;;;;;14.27;100.00;102526.31;5069554;28;1176;-83
2023/09/03 00:58:36;;;;;;;;;;;;;;;14.23;100.00;102525.72;5058201;28;1297;-82
2023/09/03 01:01:03;;;;;;;;;;;;;;;14.20;100.00;102523.31;5052156;28;1319;-82
2023/09/03 01:03:28;;;;;;;;;;;;;;;14.18;100.00;102506.94;5067378;28;1568;-83
2023/09/03 01:05:54;;;;;;;;;;;;;;;14.15;100.00;102512.34;5071148;28;1276;-80
2023/09/03 01:08:19;;;;;;;;;;;;;;;14.13;100.00;102505.59;5066519;28;1465;-82
2023/09/03 01:10:51;;;;;;;;;;;;;;;14.08;100.00;102501.50;5069241;28;1886;-85
2023/09/03 01:13:24;;;;;;;;;;;;;;;14.04;100.00;102499.22;5070306;28;1283;-84
2023/09/03 01:15:51;;;;;;;;;;;;;;;14.00;100.00;102508.22;5061590;28;1255;-84
2023/09/03 01:18:18;;;;;;;;;;;;;;;13.97;100.00;102508.41;5051536;28;1336;-83
2023/09/03 01:20:50;;;;;;;;;;;;;;;13.95;100.00;102510.31;5068982;28;1347;-84
2023/09/03 01:23:27;;;;;;;;;;;;;;;13.96;100.00;102517.19;5062709;28;1612;-83
2023/09/03 01:26:11;;;;;;;;;;;;;;;13.95;100.00;102515.53;5050670;28;1286;-84
2023/09/03 01:28:41;;;;;;;;;;;;;;;13.95;100.00;102520.75;5063766;28;1983;-81
2023/09/03 01:31:08;;;;;;;;;;;;;;;13.92;100.00;102513.13;5057746;28;1322;-83
2023/09/03 01:33:34;;;;;;;;;;;;;;;13.87;100.00;102518.63;5066994;28;1267;-82
2023/09/03 01:35:59;;;;;;;;;;;;;;;13.82;100.00;102521.59;5064587;28;1508;-83
2023/09/03 01:38:25;;;;;;;;;;;;;;;13.79;100.00;102519.16;5067685;28;1219;-84
2023/09/03 01:40:51;;;;;;;;;;;;;;;13.82;100.00;102511.16;5067684;28;1255;-84
2023/09/03 01:43:17;;;;;;;;;;;;;;;13.79;100.00;102506.13;5054716;28;1398;-84
2023/09/03 01:46:01;;;;;;;;;;;;;;;13.77;100.00;102518.44;5044688;28;1232;-84
2023/09/03 01:48:49;;;;;;;;;;;;;;;13.71;100.00;102516.25;5066757;28;1957;-81
2023/09/03 01:51:33;;;;;;;;;;;;;;;13.70;100.00;102538.03;5068961;28;1656;-83
2023/09/03 01:54:16;;;;;;;;;;;;;;;13.68;100.00;102541.69;5064415;28;1480;-82
2023/09/03 01:56:50;;;;;;;;;;;;;;;13.64;100.00;102548.88;5065629;28;1254;-84
2023/09/03 01:59:18;;;;;;;;;;;;;;;13.61;100.00;102541.28;5045331;28;1323;-84
2023/09/03 02:01:44;;;;;;;;;;;;;;;13.60;100.00;102537.00;5052614;28;1241;-84
2023/09/03 02:04:09;;;;;;;;;;;;;;;13.57;100.00;102537.19;5066975;28;1330;-83
2023/09/03 02:06:34;;;;;;;;;;;;;;;13.55;100.00;102534.69;5064775;28;1482;-84
2023/09/03 02:08:59;;;;;;;;;;;;;;;13.55;100.00;102536.47;5053705;28;1906;-84
2023/09/03 02:11:25;;;;;;;;;;;;;;;13.55;100.00;102545.13;5067284;28;1334;-83
2023/09/03 02:13:50;;;;;;;;;;;;;;;13.54;100.00;102547.84;5049276;28;1189;-83
2023/09/03 02:16:15;;;;;;;;;;;;;;;13.51;100.00;102548.03;5069577;28;1136;-83
2023/09/03 02:18:40;;;;;;;;;;;;;;;13.46;100.00;102545.72;5063881;28;1344;-84
2023/09/03 02:21:06;;;;;;;;;;;;;;;13.44;100.00;102537.19;5068063;28;1483;-83
2023/09/03 02:23:31;;;;;;;;;;;;;;;13.47;100.00;102536.13;5067145;28;1279;-83
2023/09/03 02:26:00;;;;;;;;;;;;;;;13.47;100.00;102530.94;5051138;28;1259;-83
2023/09/03 02:28:26;;;;;;;;;;;;;;;13.39;100.00;102513.19;5067030;28;1955;-83
2023/09/03 02:30:51;;;;;;;;;;;;;;;13.41;100.00;102520.91;5058844;28;1494;-84
2023/09/03 02:33:16;;;;;;;;;;;;;;;13.41;100.00;102521.75;5066040;28;1212;-84
2023/09/03 02:35:41;;;;;;;;;;;;;;;13.41;100.00;102520.91;5066018;28;1210;-84
2023/09/03 02:38:06;;;;;;;;;;;;;;;13.42;100.00;102533.00;5054645;28;1275;-84
2023/09/03 02:40:32;;;;;;;;;;;;;;;13.41;100.00;102545.19;5065353;28;1340;-82
2023/09/03 02:42:57;;;;;;;;;;;;;;;13.40;100.00;102550.53;5066104;28;1235;-84
2023/09/03 02:45:22;;;;;;;;;;;;;;;13.36;100.00;102543.84;5060986;28;1513;-84
2023/09/03 02:47:47;;;;;;;;;;;;;;;13.32;100.00;102545.81;5053191;28;1232;-83
2023/09/03 02:50:12;;;;;;;;;;;;;;;13.36;100.00;102538.63;5068002;28;1959;-82
2023/09/03 02:52:38;;;;;;;;;;;;;;;13.40;100.00;102530.50;5065451;28;1068;-83
2023/09/03 02:55:03;;;;;;;;;;;;;;;13.45;100.00;102527.59;5060405;28;1339;-83
2023/09/03 02:57:28;;;;;;;;;;;;;;;13.47;100.00;102521.34;5051615;28;1810;-83
2023/09/03 02:59:53;;;;;;;;;;;;;;;13.49;100.00;102523.84;5067460;28;1068;-84
2023/09/03 03:02:19;;;;;;;;;;;;;;;13.47;100.00;102516.13;5057103;28;1196;-83
2023/09/03 03:04:44;;;;;;;;;;;;;;;13.46;100.00;102492.78;5058864;28;1202;-83
2023/09/03 03:07:09;;;;;;;;;;;;;;;13.49;100.00;102493.41;5068421;28;1152;-82
2023/09/03 03:09:34;;;;;;;;;;;;;;;13.50;100.00;102489.03;5067129;28;1906;-84
2023/09/03 03:11:59;;;;;;;;;;;;;;;13.51;100.00;102490.69;5066662;28;994;-83
2023/09/03 03:14:25;;;;;;;;;;;;;;;13.50;100.00;102489.03;5064091;28;1089;-82
2023/09/03 03:16:50;;;;;;;;;;;;;;;13.50;100.00;102495.06;5065386;28;1102;-83
2023/09/03 03:19:15;;;;;;;;;;;;;;;13.51;100.00;102506.34;5048859;28;1188;-82
2023/09/03 03:21:40;;;;;;;;;;;;;;;13.48;100.00;102537.84;5066003;28;954;-83
2023/09/03 03:24:06;;;;;;;;;;;;;;;13.43;100.00;102534.69;5053403;28;1253;-83
2023/09/03 03:26:32;;;;;;;;;;;;;;;13.41;100.00;102541.75;5049215;28;1324;-84
2023/09/03 03:28:57;;;;;;;;;;;;;;;13.38;100.00;102547.19;5061081;28;1909;-84
2023/09/03 03:31:23;;;;;;;;;;;;;;;13.34;100.00;102545.72;5066608;28;1560;-85
2023/09/03 03:33:49;;;;;;;;;;;;;;;13.32;100.00;102552.81;5067564;28;1311;-84
2023/09/03 03:36:21;;;;;;;;;;;;;;;13.33;100.00;102557.06;5068159;28;1501;-80
2023/09/03 03:38:46;;;;;;;;;;;;;;;13.29;100.00;102554.66;5047635;28;1320;-84
2023/09/03 03:41:12;;;;;;;;;;;;;;;13.27;100.00;102556.53;5051293;28;1302;-84
2023/09/03 03:43:39;;;;;;;;;;;;;;;13.25;100.00;102548.00;5042430;28;1290;-81
2023/09/03 03:46:05;;;;;;;;;;;;;;;13.24;100.00;102551.50;5067669;28;1327;-84
2023/09/03 03:48:30;;;;;;;;;;;;;;;13.19;100.00;102548.38;5052331;28;1891;-84
2023/09/03 03:50:56;;;;;;;;;;;;;;;13.17;100.00;102550.22;5064862;28;1216;-83
2023/09/03 03:53:21;;;;;;;;;;;;;;;13.16;100.00;102548.56;5065060;28;1290;-83
2023/09/03 03:55:46;;;;;;;;;;;;;;;13.16;100.00;102553.78;5064743;28;1144;-82
2023/09/03 03:58:12;;;;;;;;;;;;;;;13.17;100.00;102555.44;5062007;28;1255;-83
2023/09/03 04:00:37;;;;;;;;;;;;;;;13.17;100.00;102555.44;5065989;28;1445;-83
2023/09/03 04:03:02;;;;;;;;;;;;;;;13.17;100.00;102555.44;5068868;28;1230;-83
2023/09/03 04:05:28;;;;;;;;;;;;;;;13.18;100.00;102554.50;5072196;28;1164;-84
2023/09/03 04:07:53;;;;;;;;;;;;;;;13.17;100.00;102560.66;5069114;28;1200;-82
2023/09/03 04:10:19;;;;;;;;;;;;;;;13.15;100.00;102567.72;5075350;28;1883;-80
2023/09/03 04:12:44;;;;;;;;;;;;;;;13.12;100.00;102561.88;5066079;28;1296;-83
2023/09/03 04:15:09;;;;;;;;;;;;;;;13.12;100.00;102575.72;5064637;28;1271;-83
2023/09/03 04:17:34;;;;;;;;;;;;;;;13.11;100.00;102571.47;5054195;28;1395;-84
2023/09/03 04:20:00;;;;;;;;;;;;;;;13.12;100.00;102567.91;5043485;28;1466;-84
2023/09/03 04:22:25;;;;;;;;;;;;;;;13.13;100.00;102567.00;5062540;28;1192;-84
2023/09/03 04:24:50;;;;;;;;;;;;;;;13.14;100.00;102566.06;5047548;28;1248;-84
2023/09/03 04:27:15;;;;;;;;;;;;;;;13.14;100.00;102555.66;5066196;28;1727;-83
2023/09/03 04:29:40;;;;;;;;;;;;;;;13.14;100.00;102566.06;5064643;28;1890;-82
2023/09/03 04:32:06;;;;;;;;;;;;;;;13.14;100.00;102565.25;5066733;28;1405;-83
2023/09/03 04:34:31;;;;;;;;;;;;;;;13.14;100.00;102567.84;5050580;28;1393;-84
2023/09/03 04:36:56;;;;;;;;;;;;;;;13.13;100.00;102569.63;5051372;28;1320;-83
2023/09/03 04:39:21;;;;;;;;;;;;;;;13.11;100.00;102579.28;5062801;28;1313;-84
2023/09/03 04:41:47;;;;;;;;;;;;;;;13.07;100.00;102577.78;5067084;28;1287;-82
2023/09/03 04:44:12;;;;;;;;;;;;;;;13.07;100.00;102575.19;5058939;28;1273;-83
2023/09/03 04:46:38;;;;;;;;;;;;;;;13.06;100.00;102586.56;5064293;28;1524;-84
2023/09/03 04:49:03;;;;;;;;;;;;;;;13.08;100.00;102589.91;5048628;28;1890;-84
2023/09/03 04:51:28;;;;;;;;;;;;;;;13.10;100.00;102588.03;5066700;28;1216;-84
2023/09/03 04:53:54;;;;;;;;;;;;;;;13.14;100.00;102586.06;5057526;28;1091;-83
2023/09/03 04:56:19;;;;;;;;;;;;;;;13.16;100.00;102579.00;5065682;28;1102;-84
2023/09/03 04:58:44;;;;;;;;;;;;;;;13.17;100.00;102586.69;5062725;28;1216;-83
2023/09/03 05:01:14;;;;;;;;;;;;;;;13.19;100.00;102594.41;5061964;28;1269;-83
2023/09/03 05:03:39;;;;;;;;;;;;;;;13.20;100.00;102602.16;5064180;28;1074;-84
2023/09/03 05:06:04;;;;;;;;;;;;;;;13.19;100.00;102605.69;5064873;28;1119;-83
2023/09/03 05:08:30;;;;;;;;;;;;;;;13.19;100.00;102610.91;5055855;28;1109;-83
2023/09/03 05:10:55;;;;;;;;;;;;;;;13.19;100.00;102605.69;5064550;28;1953;-82
2023/09/03 05:13:20;;;;;;;;;;;;;;;13.20;100.00;102619.56;5064825;28;1152;-83
2023/09/03 05:15:45;;;;;;;;;;;;;;;13.21;100.00;102624.69;5065196;28;1087;-84
2023/09/03 05:18:11;;;;;;;;;;;;;;;13.20;100.00;102617.78;5044751;28;1432;-83
2023/09/03 05:20:36;;;;;;;;;;;;;;;13.21;100.00;102616.03;5052941;28;1176;-83
2023/09/03 05:23:01;;;;;;;;;;;;;;;13.20;100.00;102623.00;5053458;28;1183;-84
2023/09/03 05:25:27;;;;;;;;;;;;;;;13.19;100.00;102613.50;5065616;28;1281;-82
2023/09/03 05:27:52;;;;;;;;;;;;;;;13.18;100.00;102627.44;5064930;28;1267;-83
2023/09/03 05:30:17;;;;;;;;;;;;;;;13.18;100.00;102622.22;5064104;28;1898;-83
2023/09/03 05:32:42;;;;;;;;;;;;;;;13.18;100.00;102619.63;5056610;28;1292;-83
2023/09/03 05:35:08;;;;;;;;;;;;;;;13.20;100.00;102623.00;5052784;28;1320;-83
2023/09/03 05:37:33;;;;;;;;;;;;;;;13.21;100.00;102624.69;5068835;28;1267;-83
2023/09/03 05:39:58;;;;;;;;;;;;;;;13.23;100.00;102628.03;5045561;28;1612;-84
2023/09/03 05:42:23;;;;;;;;;;;;;;;13.26;100.00;102633.06;5049889;28;1217;-83
2023/09/03 05:44:49;;;;;;;;;;;;;;;13.26;100.00;102632.22;5053622;28;1598;-83
2023/09/03 05:47:18;;;;;;;;;;;;;;;13.27;100.00;102645.13;5062973;28;1295;-83
2023/09/03 05:49:43;;;;;;;;;;;;;;;13.28;100.00;102636.38;5052309;28;1969;-83
2023/09/03 05:52:08;;;;;;;;;;;;;;;13.31;100.00;102644.97;5067668;28;1288;-83
2023/09/03 05:54:34;;;;;;;;;;;;;;;13.32;100.00;102651.84;5064280;28;1360;-83
2023/09/03 05:57:00;;;;;;;;;;;;;;;13.35;100.00;102646.41;5049001;28;1249;-84
2023/09/03 05:59:25;;;;;;;;;;;;;;;13.36;100.00;102653.28;5053556;28;1401;-84
2023/09/03 06:01:50;;;;;;;;;;;;;;;13.38;100.00;102661.88;5066496;28;1264;-84
2023/09/03 06:04:16;;;;;;;;;;;;;;;13.39;100.00;102664.38;5066247;28;1265;-84
2023/09/03 06:06:42;;;;;;;;;;;;;;;13.41;100.00;102653.84;5065057;28;1498;-84
2023/09/03 06:09:07;;;;;;;;;;;;;;;13.43;100.00;102665.84;5054744;28;1961;-84
2023/09/03 06:11:33;;;;;;;;;;;;;;;13.46;100.00;102672.63;5065926;28;1549;-84
2023/09/03 06:13:58;;;;;;;;;;;;;;;13.48;100.00;102668.16;5045779;28;1594;-84
2023/09/03 06:16:26;;;;;;;;;;;;;;;13.52;100.00;102674.84;5063427;28;1083;-84
2023/09/03 06:18:54;;;;;;;;;;;;;;;13.54;100.00;102683.41;5065774;28;1493;-84
2023/09/03 06:21:19;;;;;;;;;;;;;;;13.56;100.00;102681.53;5068627;28;1360;-82
2023/09/03 06:23:45;;;;;;;;;;;;;;;13.58;100.00;102690.06;5049325;28;1474;-84
2023/09/03 06:26:10;;;;;;;;;;;;;;;13.62;100.00;102690.72;5051244;28;1311;-84
2023/09/03 06:28:35;;;;;;;;;;;;;;;13.63;100.00;102695.84;5069676;28;1905;-84
2023/09/03 06:31:01;;;;;;;;;;;;;;;13.65;100.00;102701.81;5067722;28;1556;-84
2023/09/03 06:33:27;;;;;;;;;;;;;;;13.68;100.00;102705.97;5065725;28;1247;-83
2023/09/03 06:35:52;;;;;;;;;;;;;;;13.70;100.00;102712.75;5066427;28;1267;-84
2023/09/03 06:38:17;;;;;;;;;;;;;;;13.74;100.00;102722.06;5051268;28;1223;-84
2023/09/03 06:40:42;;;;;;;;;;;;;;;13.76;100.00;102711.50;5069686;28;1349;-84
2023/09/03 06:43:07;;;;;;;;;;;;;;;13.78;100.00;102728.75;5068538;28;1307;-84
2023/09/03 06:45:33;;;;;;;;;;;;;;;13.79;100.00;102719.16;5061202;28;1268;-84
2023/09/03 06:47:58;;;;;;;;;;;;;;;13.81;100.00;102723.31;5067011;28;1316;-84
2023/09/03 06:50:23;;;;;;;;;;;;;;;13.86;100.00;102728.25;5048269;28;1891;-84
2023/09/03 06:52:48;;;;;;;;;;;;;;;13.90;100.00;102732.34;5069113;28;1105;-84
2023/09/03 06:55:13;;;;;;;;;;;;;;;13.96;100.00;102725.88;5057084;28;1090;-82
2023/09/03 06:57:39;;;;;;;;;;;;;;;13.99;100.00;102736.97;5068340;28;1060;-83
2023/09/03 07:00:06;;;;;;;;;;;;;;;14.03;100.00;102721.94;5046367;28;1355;-85
2023/09/03 07:02:31;;;;;;;;;;;;;;;14.08;100.00;102719.84;5067429;28;1089;-84
2023/09/03 07:04:59;;;;;;;;;;;;;;;14.14;100.00;102726.44;5065950;28;1135;-83
2023/09/03 07:07:24;;;;;;;;;;;;;;;14.14;100.00;102729.06;5053191;28;1083;-85
2023/09/03 07:09:49;;;;;;;;;;;;;;;14.16;100.00;102730.59;5048695;28;1897;-84
2023/09/03 07:12:15;;;;;;;;;;;;;;;14.19;100.00;102727.81;5051430;28;1147;-85
2023/09/03 07:14:40;;;;;;;;;;;;;;;14.25;100.00;102726.56;5059861;28;1021;-84
2023/09/03 07:17:05;;;;;;;;;;;;;;;14.31;100.00;102732.19;5049264;28;1357;-83
2023/09/03 07:19:30;;;;;;;;;;;;;;;14.37;100.00;102730.13;5062890;28;1050;-84
2023/09/03 07:21:56;;;;;;;;;;;;;;;14.38;100.00;102731.78;5065659;28;1010;-83
2023/09/03 07:24:21;;;;;;;;;;;;;;;14.42;100.00;102733.25;5064833;28;1146;-84
2023/09/03 07:26:46;;;;;;;;;;;;;;;14.45;100.00;102738.25;5040186;28;1288;-85
2023/09/03 07:29:15;;;;;;;;;;;;;;;14.50;100.00;102742.25;5050813;28;1964;-85
2023/09/03 07:31:41;;;;;;;;;;;;;;;14.52;100.00;102743.03;5065297;28;1352;-84
2023/09/03 07:34:13;;;;;;;;;;;;;;;14.58;100.00;102744.38;5047139;28;1243;-84
2023/09/03 07:36:38;;;;;;;;;;;;;;;14.65;100.00;102750.84;5049132;28;1350;-85
2023/09/03 07:39:05;;;;;;;;;;;;;;;14.70;100.00;102753.97;5042708;28;1387;-84
2023/09/03 07:41:30;;;;;;;;;;;;;;;14.76;100.00;102757.94;5051882;28;1430;-83
2023/09/03 07:43:56;;;;;;;;;;;;;;;14.82;100.00;102754.91;5046017;28;1439;-85
2023/09/03 07:46:21;;;;;;;;;;;;;;;14.85;100.00;102757.31;5052208;28;1313;-82
2023/09/03 07:48:46;;;;;;;;;;;;;;;14.91;100.00;102766.50;5050524;28;1885;-84
2023/09/03 07:51:14;;;;;;;;;;;;;;;14.98;100.00;102771.22;5052297;28;1403;-84
2023/09/03 07:53:40;;;;;;;;;;;;;;;15.06;100.00;102760.22;5047755;28;1311;-83
2023/09/03 07:56:05;;;;;;;;;;;;;;;15.10;100.00;102762.50;5059513;28;1689;-84
2023/09/03 07:58:30;;;;;;;;;;;;;;;15.18;100.00;102764.56;5065763;28;1470;-83
2023/09/03 08:00:55;;;;;;;;;;;;;;;15.23;100.00;102762.47;5062789;28;1368;-83
2023/09/03 08:03:21;;;;;;;;;;;;;;;15.28;100.00;102764.78;5047787;28;1667;-82
2023/09/03 08:05:46;;;;;;;;;;;;;;;15.35;100.00;102763.41;5065671;28;1508;-83
2023/09/03 08:08:11;;;;;;;;;;;;;;;15.44;100.00;102764.53;5063654;28;1231;-84
2023/09/03 08:10:36;;;;;;;;;;;;;;;15.52;100.00;102767.41;5065360;28;2226;-84
2023/09/03 08:13:02;;;;;;;;;;;;;;;15.60;100.00;102770.34;5064340;28;1252;-84
2023/09/03 08:15:27;;;;;;;;;;;;;;;15.70;100.00;102768.75;5067228;28;1392;-84
2023/09/03 08:17:52;;;;;;;;;;;;;;;15.75;100.00;102773.66;5066341;28;1485;-82
2023/09/03 08:20:17;;;;;;;;;;;;;;;15.79;100.00;102775.94;5046969;28;1534;-84
2023/09/03 08:22:48;;;;;;;;;;;;;;;15.86;100.00;102777.16;5059170;28;1332;-84
2023/09/03 08:25:14;;;;;;;;;;;;;;;15.98;100.00;102774.59;5060780;28;1234;-84
2023/09/03 08:27:40;;;;;;;;;;;;;;;16.07;100.00;102787.00;5051484;28;1470;-84
2023/09/03 08:30:09;;;;;;;;;;;;;;;16.13;100.00;102778.69;5052400;28;1969;-81
2023/09/03 08:32:35;;;;;;;;;;;;;;;16.19;100.00;102773.84;5064363;28;1285;-82
2023/09/03 08:35:01;;;;;;;;;;;;;;;16.26;100.00;102778.63;5063682;28;1308;-83
2023/09/03 08:37:28;;;;;;;;;;;;;;;16.34;100.00;102790.16;5050314;28;1283;-84
2023/09/03 08:39:53;;;;;;;;;;;;;;;16.41;100.00;102777.47;5049131;28;1518;-83
2023/09/03 08:42:19;;;;;;;;;;;;;;;16.49;100.00;102779.50;5063492;28;1489;-85
2023/09/03 08:44:57;;;;;;;;;;;;;;;16.56;100.00;102770.22;5049122;28;1327;-84
2023/09/03 08:47:23;;;;;;;;;;;;;;;16.64;100.00;102773.09;5052570;28;1234;-83
2023/09/03 08:49:50;;;;;;;;;;;;;;;16.68;100.00;102777.97;5052048;28;1898;-82
2023/09/03 08:52:16;;;;;;;;;;;;;;;16.73;100.00;102777.66;5064532;28;1056;-84
2023/09/03 08:54:41;;;;;;;;;;;;;;;16.81;100.00;102777.91;5044943;28;1341;-83
2023/09/03 08:57:06;;;;;;;;;;;;;;;16.90;100.00;102779.81;5065207;28;1078;-82
2023/09/03 08:59:32;;;;;;;;;;;;;;;16.98;100.00;102777.44;5064438;28;1099;-83
2023/09/03 09:01:57;;;;;;;;;;;;;;;17.04;100.00;102776.13;5048610;28;1196;-81
2023/09/03 09:04:25;;;;;;;;;;;;;;;17.11;100.00;102781.72;5063874;28;1499;-84
2023/09/03 09:06:51;;;;;;;;;;;;;;;17.20;100.00;102775.75;5050622;28;1089;-83
2023/09/03 09:09:17;;;;;;;;;;;;;;;17.30;100.00;102776.69;5067037;28;1893;-83
2023/09/03 09:11:50;;;;;;;;;;;;;;;17.44;100.00;102768.56;5068653;28;1015;-82
2023/09/03 09:14:20;;;;;;;;;;;;;;;17.56;100.00;102773.78;5069794;28;1105;-84
2023/09/03 09:16:45;;;;;;;;;;;;;;;17.66;100.00;102772.06;5063026;28;1047;-83
2023/09/03 09:19:15;;;;;;;;;;;;;;;17.77;100.00;102785.19;5066449;28;1299;-83
2023/09/03 09:21:40;;;;;;;;;;;;;;;17.83;100.00;102776.00;5052550;28;1751;-82
2023/09/03 09:24:06;;;;;;;;;;;;;;;17.91;100.00;102787.56;5057816;28;1247;-82
2023/09/03 09:26:31;;;;;;;;;;;;;;;17.96;100.00;102774.88;5068732;28;1091;-83
2023/09/03 09:29:00;;;;;;;;;;;;;;;18.03;100.00;102781.28;5058407;28;2223;-82
2023/09/03 09:31:27;;;;;;;;;;;;;;;18.03;100.00;102769.97;5049397;28;1392;-82
2023/09/03 09:33:52;;;;;;;;;;;;;;;18.13;100.00;102780.53;5050917;28;1358;-83
2023/09/03 09:36:17;;;;;;;;;;;;;;;18.22;100.00;102780.59;5064748;28;1337;-82
2023/09/03 09:38:42;;;;;;;;;;;;;;;18.30;100.00;102782.59;5054311;28;2438;-82
2023/09/03 09:41:24;;;;;;;;;;;;;;;18.43;100.00;102777.16;5052942;28;1545;-82
2023/09/03 09:43:51;;;;;;;;;;;;;;;18.49;100.00;102777.47;5043767;28;1335;-81
2023/09/03 09:46:29;;;;;;;;;;;;;;;18.60;100.00;102778.34;5051979;28;1384;-82
2023/09/03 09:49:01;;;;;;;;;;;;;;;18.64;97.48;102785.84;5054485;28;1890;-84
2023/09/03 09:51:27;;;;;;;;;;;;;;;18.68;98.02;102770.66;5066014;28;1123;-83
2023/09/03 09:53:59;;;;;;;;;;;;;;;18.72;98.02;102777.34;5068860;28;1376;-83
2023/09/03 09:56:26;;;;;;;;;;;;;;;18.79;97.05;102781.09;5068925;28;1095;-83
2023/09/03 09:58:51;;;;;;;;;;;;;;;18.84;97.16;102785.00;5068071;28;1066;-83
2023/09/03 10:01:16;;;;;;;;;;;;;;;18.96;97.56;102791.00;5064078;28;1078;-84
2023/09/03 10:03:45;;;;;;;;;;;;;;;19.06;97.08;102788.41;5056196;28;1260;-84
2023/09/03 10:06:15;;;;;;;;;;;;;;;19.10;94.41;102782.75;5065467;28;1061;-85
2023/09/03 10:08:41;;;;;;;;;;;;;;;19.15;90.89;102789.41;5054990;28;1307;-84
2023/09/03 10:11:06;;;;;;;;;;;;;;;19.19;94.18;102790.81;5052723;28;1902;-84
2023/09/03 10:13:32;;;;;;;;;;;;;;;19.25;89.50;102787.63;5065674;28;1414;-83
2023/09/03 10:16:02;;;;;;;;;;;;;;;19.33;92.97;102787.81;5065199;28;1554;-83
2023/09/03 10:18:27;;;;;;;;;;;;;;;19.41;88.39;102798.50;5066239;28;1104;-84
2023/09/03 10:20:54;;;;;;;;;;;;;;;19.45;92.27;102796.44;5050882;28;1114;-84
2023/09/03 10:23:22;;;;;;;;;;;;;;;19.46;88.12;102793.66;5047849;28;1316;-84
2023/09/03 10:25:47;;;;;;;;;;;;;;;19.50;86.17;102795.06;5065393;28;1389;-84
2023/09/03 10:28:16;;;;;;;;;;;;;;;19.50;84.56;102789.78;5058162;28;1272;-82
2023/09/03 10:30:44;;;;;;;;;;;;;;;19.52;86.48;102795.75;5061573;28;1968;-84
2023/09/03 10:33:10;;;;;;;;;;;;;;;19.54;87.42;102790.34;5050339;28;1308;-84
2023/09/03 10:35:35;;;;;;;;;;;;;;;19.60;88.31;102785.38;5055431;28;1451;-84
2023/09/03 10:38:00;;;;;;;;;;;;;;;19.73;88.76;102782.50;5055810;28;1396;-83
2023/09/03 10:40:28;;;;;;;;;;;;;;;19.86;89.31;102779.59;5051014;28;1287;-84
2023/09/03 10:43:22;;;;;;;;;;;;;;;19.93;88.35;102772.78;5050215;28;1263;-84
2023/09/03 10:46:22;;;;;;;;;;;;;;;20.04;88.75;102782.38;5055335;28;1389;-82
2023/09/03 10:48:51;;;;;;;;;;;;;;;20.13;87.20;102785.00;5028696;28;1895;-83
2023/09/03 10:51:33;;;;;;;;;;;;;;;20.15;83.64;102782.22;5048775;28;1732;-80
2023/09/03 10:54:18;;;;;;;;;;;;;;;20.16;83.90;102787.34;5048297;28;1204;-85
2023/09/03 10:57:02;;;;;;;;;;;;;;;20.20;82.37;102781.81;5064914;28;1357;-82
2023/09/03 10:59:47;;;;;;;;;;;;;;;20.25;81.68;102784.84;5062878;28;1042;-83
2023/09/03 11:02:25;;;;;;;;;;;;;;;20.30;84.47;102782.59;5067204;28;1264;-83
2023/09/03 11:05:10;;;;;;;;;;;;;;;20.32;83.24;102783.31;5044256;28;1231;-84
2023/09/03 11:07:35;;;;;;;;;;;;;;;20.38;82.93;102780.09;5060445;28;1095;-85
2023/09/03 11:10:19;;;;;;;;;;;;;;;20.39;80.32;102776.50;5050856;28;1947;-83
2023/09/03 11:12:45;;;;;;;;;;;;;;;20.38;81.63;102777.47;5055874;28;1433;-85
2023/09/03 11:15:10;;;;;;;;;;;;;;;20.37;80.47;102781.09;5049674;28;1288;-83
2023/09/03 11:17:35;;;;;;;;;;;;;;;20.37;78.76;102778.44;5067297;28;1285;-85
2023/09/03 11:20:04;;;;;;;;;;;;;;;20.39;79.09;102787.03;5048976;28;1286;-86
2023/09/03 11:22:37;;;;;;;;;;;;;;;20.40;75.27;102783.41;5048826;28;1140;-85
2023/09/03 11:25:02;;;;;;;;;;;;;;;20.35;78.06;102769.84;5044147;28;1102;-84
2023/09/03 11:27:30;;;;;;;;;;;;;;;20.48;76.56;102788.84;5046415;28;1569;-86
2023/09/03 11:30:02;;;;;;;;;;;;;;;20.52;79.65;102787.56;5067302;28;1957;-86
2023/09/03 11:32:57;;;;;;;;;;;;;;;20.53;77.78;102794.53;5050203;28;1264;-86
2023/09/03 11:35:26;;;;;;;;;;;;;;;20.57;78.11;102785.34;5054971;28;1159;-87
2023/09/03 11:37:54;;;;;;;;;;;;;;;20.68;78.47;102785.19;5043322;28;1253;-85
2023/09/03 11:40:33;;;;;;;;;;;;;;;20.73;77.94;102786.56;5042091;28;1241;-86
2023/09/03 11:42:59;;;;;;;;;;;;;;;20.76;77.06;102778.34;5064425;28;1234;-86
2023/09/03 11:45:29;;;;;;;;;;;;;;;20.84;77.88;102786.38;5054771;28;1101;-82
2023/09/03 11:47:54;;;;;;;;;;;;;;;20.89;74.76;102789.41;5062871;28;1324;-80
2023/09/03 11:50:20;;;;;;;;;;;;;;;20.94;77.37;102792.47;5063606;28;1926;-84
2023/09/03 11:52:58;;;;;;;;;;;;;;;21.02;76.65;102795.19;5045894;28;1208;-82
2023/09/03 11:55:31;;;;;;;;;;;;;;;21.08;74.20;102799.88;5060608;28;1061;-86
2023/09/03 11:58:01;;;;;;;;;;;;;;;21.11;74.90;102789.03;5063678;28;1229;-86
2023/09/03 12:00:29;;;;;;;;;;;;;;;21.11;72.76;102783.75;5064889;28;1313;-82
2023/09/03 12:02:58;;;;;;;;;;;;;;;21.13;74.85;102784.44;5063166;28;1291;-86
2023/09/03 12:05:44;;;;;;;;;;;;;;;21.16;74.36;102776.25;5046327;28;1209;-83
2023/09/03 12:08:09;;;;;;;;;;;;;;;21.18;71.78;102789.28;5049388;28;1262;-84
2023/09/03 12:10:35;;;;;;;;;;;;;;;21.25;66.44;102784.25;5067001;28;1933;-85
2023/09/03 12:13:01;;;;;;;;;;;;;;;21.35;73.40;102783.25;5067317;28;1285;-86
2023/09/03 12:15:32;;;;;;;;;;;;;;;21.43;74.16;102777.22;5062249;28;1098;-83
2023/09/03 12:18:07;;;;;;;;;;;;;;;21.49;72.10;102784.53;5063346;28;1071;-85
2023/09/03 12:20:34;;;;;;;;;;;;;;;21.53;67.23;102796.47;5067277;28;1149;-84
2023/09/03 12:23:09;;;;;;;;;;;;;;;21.55;65.00;102791.03;5066679;28;1205;-81
2023/09/03 12:25:35;;;;;;;;;;;;;;;21.53;68.95;102783.25;5065311;28;1362;-82
2023/09/03 12:28:00;;;;;;;;;;;;;;;21.53;69.94;102777.97;5065650;28;1318;-86
2023/09/03 12:30:26;;;;;;;;;;;;;;;21.57;69.83;102778.53;5064122;28;1906;-85
2023/09/03 12:32:54;;;;;;;;;;;;;;;21.62;68.09;102774.44;5066600;28;1090;-83
2023/09/03 12:35:20;;;;;;;;;;;;;;;21.63;69.82;102772.63;5056911;28;1004;-83
2023/09/03 12:37:45;;;;;;;;;;;;;;;21.65;69.11;102776.78;5048380;28;1376;-85